Time,TemperatureF,DewpointF,PressureIn,WindDirection,WindDirectionDegrees,WindSpeedMPH,WindSpeedGustMPH,Humidity,HourlyPrecipIn,Conditions,Clouds,dailyrainin,SoftwareType,DateUTC
2013-04-23 00:03:00,54.0,26.0,-100.00,ESE,105,9.0,13.0,33,0.00,,,-99.99,,2013-04-23 04:03:00,
2013-04-23 00:12:00,54.0,26.0,-100.00,ESE,105,9.0,13.0,33,0.00,,,-99.99,,2013-04-23 04:12:00,
2013-04-23 00:23:00,53.0,26.0,-100.00,ESE,110,7.0,12.0,34,0.00,,,-99.99,,2013-04-23 04:23:00,
2013-04-23 00:33:00,52.0,25.0,-100.00,ESE,110,8.0,12.0,34,0.00,,,-99.99,,2013-04-23 04:33:00,
2013-04-23 00:43:00,52.0,25.0,-100.00,ESE,105,9.0,12.0,34,0.00,,,-99.99,,2013-04-23 04:43:00,
2013-04-23 00:53:00,52.0,25.0,-100.00,ESE,115,9.0,11.0,34,0.00,,,-99.99,,2013-04-23 04:53:00,
2013-04-23 01:02:00,51.0,25.0,-100.00,ESE,110,7.0,11.0,35,0.00,,,-99.99,,2013-04-23 05:02:00,
2013-04-23 01:12:00,51.0,25.0,-100.00,ESE,105,6.0,10.0,36,0.00,,,-99.99,,2013-04-23 05:12:00,
2013-04-23 01:22:00,51.0,25.0,-100.00,ESE,105,7.0,10.0,36,0.00,,,-99.99,,2013-04-23 05:22:00,
2013-04-23 01:32:00,50.0,25.0,-100.00,ESE,115,7.0,11.0,36,0.00,,,-99.99,,2013-04-23 05:32:00,
2013-04-23 01:42:00,50.0,25.0,-100.00,ESE,110,8.0,12.0,36,0.00,,,-99.99,,2013-04-23 05:42:00,
2013-04-23 01:52:00,49.0,25.0,-100.00,ESE,110,6.0,9.0,38,0.00,,,-99.99,,2013-04-23 05:52:00,
2013-04-23 02:02:00,49.0,25.0,-100.00,ESE,110,7.0,10.0,38,0.00,,,-99.99,,2013-04-23 06:02:00,
2013-04-23 02:12:00,49.0,25.0,-100.00,ESE,110,7.0,10.0,38,0.00,,,-99.99,,2013-04-23 06:12:00,
2013-04-23 02:21:00,49.0,25.0,-100.00,ESE,110,7.0,9.0,39,0.00,,,-99.99,,2013-04-23 06:21:00,
2013-04-23 02:33:00,48.0,25.0,-100.00,ESE,115,6.0,9.0,40,0.00,,,-99.99,,2013-04-23 06:33:00,
2013-04-23 02:42:00,48.0,25.0,-100.00,ESE,105,6.0,9.0,41,0.00,,,-99.99,,2013-04-23 06:42:00,
2013-04-23 02:52:00,48.0,25.0,-100.00,ESE,110,7.0,9.0,41,0.00,,,-99.99,,2013-04-23 06:52:00,
2013-04-23 03:02:00,47.0,26.0,-100.00,ESE,105,6.0,9.0,42,0.00,,,-99.99,,2013-04-23 07:02:00,
2013-04-23 03:11:00,47.0,25.0,-100.00,ESE,110,7.0,9.0,42,0.00,,,-99.99,,2013-04-23 07:11:00,
2013-04-23 03:21:00,47.0,26.0,-100.00,ESE,110,6.0,9.0,43,0.00,,,-99.99,,2013-04-23 07:21:00,
2013-04-23 03:32:00,46.0,26.0,-100.00,ESE,110,6.0,9.0,44,0.00,,,-99.99,,2013-04-23 07:32:00,
2013-04-23 03:42:00,46.0,26.0,-100.00,ESE,110,5.0,10.0,45,0.00,,,-99.99,,2013-04-23 07:42:00,
2013-04-23 03:52:00,46.0,26.0,-100.00,ESE,105,6.0,9.0,45,0.00,,,-99.99,,2013-04-23 07:52:00,
2013-04-23 04:02:00,46.0,26.0,-100.00,ESE,105,6.0,9.0,47,0.00,,,-99.99,,2013-04-23 08:02:00,
2013-04-23 04:11:00,45.0,26.0,-100.00,ESE,110,5.0,9.0,47,0.00,,,-99.99,,2013-04-23 08:11:00,
2013-04-23 04:21:00,45.0,26.0,-100.00,ESE,115,6.0,9.0,47,0.00,,,-99.99,,2013-04-23 08:21:00,
2013-04-23 04:32:00,45.0,26.0,-100.00,ESE,110,6.0,8.0,48,0.00,,,-99.99,,2013-04-23 08:32:00,
2013-04-23 04:42:00,45.0,27.0,-100.00,ESE,105,6.0,9.0,49,0.00,,,-99.99,,2013-04-23 08:42:00,
2013-04-23 04:52:00,44.0,27.0,-100.00,ESE,115,6.0,9.0,49,0.00,,,-99.99,,2013-04-23 08:52:00,
2013-04-23 05:02:00,44.0,27.0,-100.00,ESE,105,6.0,9.0,50,0.00,,,-99.99,,2013-04-23 09:02:00,
2013-04-23 05:11:00,44.0,27.0,-100.00,ESE,105,6.0,9.0,50,0.00,,,-99.99,,2013-04-23 09:11:00,
2013-04-23 05:21:00,44.0,27.0,-100.00,ESE,105,6.0,9.0,50,0.00,,,-99.99,,2013-04-23 09:21:00,
2013-04-23 05:33:00,44.0,27.0,-100.00,East,100,6.0,8.0,51,0.00,,,-99.99,,2013-04-23 09:33:00,
2013-04-23 05:43:00,44.0,27.0,-100.00,ESE,110,6.0,9.0,51,0.00,,,-99.99,,2013-04-23 09:43:00,
2013-04-23 05:52:00,43.0,27.0,-100.00,ESE,110,5.0,9.0,53,0.00,,,-99.99,,2013-04-23 09:52:00,
2013-04-23 06:03:00,43.0,27.0,-100.00,ESE,110,5.0,8.0,52,0.00,,,-99.99,,2013-04-23 10:03:00,
2013-04-23 06:13:00,43.0,27.0,-100.00,ESE,115,5.0,7.0,53,0.00,,,-99.99,,2013-04-23 10:13:00,
2013-04-23 06:23:00,43.0,27.0,-100.00,ESE,110,6.0,7.0,53,0.00,,,-99.99,,2013-04-23 10:23:00,
2013-04-23 06:33:00,43.0,27.0,-100.00,ESE,115,6.0,7.0,53,0.00,,,-99.99,,2013-04-23 10:33:00,
2013-04-23 06:42:00,43.0,27.0,-100.00,ESE,120,5.0,7.0,53,0.00,,,-99.99,,2013-04-23 10:42:00,
2013-04-23 06:52:00,43.0,27.0,-100.00,ESE,115,6.0,8.0,53,0.00,,,-99.99,,2013-04-23 10:52:00,
2013-04-23 07:03:00,42.0,27.0,-100.00,ESE,115,6.0,7.0,54,0.00,,,-99.99,,2013-04-23 11:03:00,
2013-04-23 07:12:00,42.0,27.0,-100.00,ESE,115,6.0,7.0,54,0.00,,,-99.99,,2013-04-23 11:12:00,
2013-04-23 07:21:00,42.0,28.0,-100.00,ESE,110,6.0,9.0,55,0.00,,,-99.99,,2013-04-23 11:21:00,
2013-04-23 07:32:00,43.0,28.0,-100.00,ESE,110,7.0,9.0,54,0.00,,,-99.99,,2013-04-23 11:32:00,
2013-04-23 07:42:00,44.0,28.0,-100.00,ESE,110,7.0,10.0,53,0.00,,,-99.99,,2013-04-23 11:42:00,
2013-04-23 07:53:00,44.0,28.0,-100.00,ESE,110,7.0,10.0,53,0.00,,,-99.99,,2013-04-23 11:53:00,
2013-04-23 08:02:00,45.0,28.0,-100.00,ESE,115,4.0,9.0,52,0.00,,,-99.99,,2013-04-23 12:02:00,
2013-04-23 08:12:00,46.0,28.0,-100.00,ESE,110,6.0,9.0,50,0.00,,,-99.99,,2013-04-23 12:12:00,
2013-04-23 08:22:00,46.0,29.0,-100.00,SE,125,6.0,9.0,50,0.00,,,-99.99,,2013-04-23 12:22:00,
2013-04-23 08:32:00,47.0,29.0,-100.00,SE,130,7.0,11.0,48,0.00,,,-99.99,,2013-04-23 12:32:00,
2013-04-23 08:42:00,48.0,29.0,-100.00,SSE,150,7.0,14.0,49,0.00,,,-99.99,,2013-04-23 12:42:00,
2013-04-23 08:52:00,48.0,29.0,-100.00,SSE,155,7.0,11.0,47,0.00,,,-99.99,,2013-04-23 12:52:00,
2013-04-23 09:01:00,49.0,30.0,-100.00,SSE,165,9.0,12.0,46,0.00,,,-99.99,,2013-04-23 13:01:00,
2013-04-23 09:11:00,49.0,30.0,-100.00,SSE,165,9.0,12.0,46,0.00,,,-99.99,,2013-04-23 13:11:00,
2013-04-23 09:21:00,50.0,30.0,-100.00,SSE,150,10.0,14.0,46,0.00,,,-99.99,,2013-04-23 13:21:00,
2013-04-23 09:32:00,51.0,30.0,-100.00,SE,140,9.0,16.0,44,0.00,,,-99.99,,2013-04-23 13:32:00,
2013-04-23 09:42:00,52.0,32.0,-100.00,SSE,155,6.0,13.0,47,0.00,,,-99.99,,2013-04-23 13:42:00,
2013-04-23 09:52:00,52.0,30.0,-100.00,SSE,155,9.0,15.0,43,0.00,,,-99.99,,2013-04-23 13:52:00,
2013-04-23 10:02:00,53.0,32.0,-100.00,South,170,11.0,14.0,45,0.00,,,-99.99,,2013-04-23 14:02:00,
2013-04-23 10:11:00,53.0,32.0,-100.00,SSE,165,11.0,14.0,43,0.00,,,-99.99,,2013-04-23 14:11:00,
2013-04-23 10:22:00,54.0,32.0,-100.00,SSE,150,11.0,14.0,43,0.00,,,-99.99,,2013-04-23 14:22:00,
2013-04-23 10:32:00,55.0,35.0,-100.00,SSE,160,7.0,11.0,46,0.00,,,-99.99,,2013-04-23 14:32:00,
2013-04-23 10:42:00,55.0,34.0,-100.00,South,185,8.0,12.0,44,0.00,,,-99.99,,2013-04-23 14:42:00,
2013-04-23 10:52:00,55.0,32.0,-100.00,South,175,9.0,14.0,40,0.00,,,-99.99,,2013-04-23 14:52:00,
2013-04-23 11:01:00,56.0,33.0,-100.00,South,170,7.0,11.0,42,0.00,,,-99.99,,2013-04-23 15:01:00,
2013-04-23 11:12:00,57.0,34.0,-100.00,SSE,165,4.0,12.0,42,0.00,,,-99.99,,2013-04-23 15:12:00,
2013-04-23 11:21:00,57.0,33.0,-100.00,SSE,165,4.0,9.0,40,0.00,,,-99.99,,2013-04-23 15:21:00,
2013-04-23 11:23:00,59.0,35.0,-100.00,SSE,155,6.0,9.0,40,0.00,,,-99.99,,2013-04-23 15:23:00,
2013-04-23 11:32:00,59.0,35.0,-100.00,South,180,4.0,11.0,40,0.00,,,-99.99,,2013-04-23 15:32:00,
2013-04-23 11:42:00,59.0,35.0,-100.00,SSE,155,6.0,9.0,40,0.00,,,-99.99,,2013-04-23 15:42:00,
2013-04-23 11:53:00,59.0,35.0,-100.00,SSE,155,6.0,9.0,40,0.00,,,-99.99,,2013-04-23 15:53:00,
2013-04-23 12:03:00,59.0,35.0,-100.00,SSE,155,6.0,9.0,40,0.00,,,-99.99,,2013-04-23 16:03:00,
2013-04-23 12:12:00,59.0,35.0,-100.00,SSE,155,6.0,9.0,40,0.00,,,-99.99,,2013-04-23 16:12:00,
2013-04-23 13:02:00,64.0,40.0,-100.00,SSE,160,9.0,12.0,40,0.00,,,-99.99,,2013-04-23 17:02:00,
2013-04-23 13:12:00,64.0,40.0,-100.00,SSE,160,9.0,12.0,40,0.00,,,-99.99,,2013-04-23 17:12:00,
2013-04-23 13:22:00,64.0,39.0,-100.00,SE,135,9.0,15.0,39,0.00,,,-99.99,,2013-04-23 17:22:00,
2013-04-23 13:33:00,65.0,39.0,-100.00,South,175,12.0,16.0,38,0.00,,,-99.99,,2013-04-23 17:33:00,
2013-04-23 13:42:00,66.0,41.0,-100.00,SE,135,11.0,15.0,39,0.00,,,-99.99,,2013-04-23 17:42:00,
2013-04-23 13:53:00,66.0,41.0,-100.00,SSE,155,7.0,16.0,39,0.00,,,-99.99,,2013-04-23 17:53:00,
2013-04-23 14:02:00,66.0,40.0,-100.00,South,170,9.0,14.0,38,0.00,,,-99.99,,2013-04-23 18:02:00,
2013-04-23 14:12:00,67.0,40.0,-100.00,SE,140,12.0,16.0,38,0.00,,,-99.99,,2013-04-23 18:12:00,
2013-04-23 14:22:00,67.0,38.0,-100.00,South,190,7.0,12.0,35,0.00,,,-99.99,,2013-04-23 18:22:00,
2013-04-23 14:32:00,67.0,40.0,-100.00,South,175,9.0,19.0,37,0.00,,,-99.99,,2013-04-23 18:32:00,
2013-04-23 14:42:00,67.0,41.0,-100.00,South,185,11.0,18.0,37,0.00,,,-99.99,,2013-04-23 18:42:00,
2013-04-23 14:52:00,68.0,44.0,-100.00,SE,135,8.0,15.0,40,0.00,,,-99.99,,2013-04-23 18:52:00,
2013-04-23 15:02:00,68.0,43.0,-100.00,South,175,9.0,19.0,39,0.00,,,-99.99,,2013-04-23 19:02:00,
2013-04-23 15:11:00,68.0,42.0,-100.00,SSE,165,16.0,19.0,39,0.00,,,-99.99,,2013-04-23 19:11:00,
2013-04-23 15:22:00,68.0,40.0,-100.00,SSW,205,15.0,21.0,35,0.00,,,-99.99,,2013-04-23 19:22:00,
2013-04-23 15:32:00,68.0,40.0,-100.00,SSW,205,14.0,22.0,36,0.00,,,-99.99,,2013-04-23 19:32:00,
2013-04-23 15:42:00,68.0,41.0,-100.00,SW,225,11.0,18.0,36,0.00,,,-99.99,,2013-04-23 19:42:00,
2013-04-23 15:52:00,68.0,41.0,-100.00,SW,225,14.0,20.0,37,0.00,,,-99.99,,2013-04-23 19:52:00,
2013-04-23 16:02:00,68.0,42.0,-100.00,SSW,195,12.0,19.0,38,0.00,,,-99.99,,2013-04-23 20:02:00,
2013-04-23 16:11:00,68.0,43.0,-100.00,SSW,195,12.0,16.0,40,0.00,,,-99.99,,2013-04-23 20:11:00,
2013-04-23 16:22:00,68.0,42.0,-100.00,SW,220,9.0,18.0,38,0.00,,,-99.99,,2013-04-23 20:22:00,
2013-04-23 16:32:00,68.0,41.0,-100.00,South,190,13.0,16.0,36,0.00,,,-99.99,,2013-04-23 20:32:00,
2013-04-23 16:42:00,67.0,43.0,-100.00,South,185,10.0,17.0,40,0.00,,,-99.99,,2013-04-23 20:42:00,
2013-04-23 16:52:00,68.0,41.0,-100.00,SW,230,12.0,16.0,37,0.00,,,-99.99,,2013-04-23 20:52:00,
2013-04-23 17:02:00,68.0,42.0,-100.00,SW,230,9.0,16.0,38,0.00,,,-99.99,,2013-04-23 21:02:00,
2013-04-23 17:12:00,68.0,42.0,-100.00,SW,230,9.0,16.0,38,0.00,,,-99.99,,2013-04-23 21:12:00,
2013-04-23 17:22:00,68.0,40.0,-100.00,WSW,240,11.0,16.0,35,0.00,,,-99.99,,2013-04-23 21:22:00,
2013-04-23 17:33:00,67.0,41.0,-100.00,SW,225,9.0,19.0,38,0.00,,,-99.99,,2013-04-23 21:33:00,
2013-04-23 17:43:00,68.0,40.0,-100.00,SW,215,12.0,17.0,36,0.00,,,-99.99,,2013-04-23 21:43:00,
2013-04-23 17:53:00,68.0,40.0,-100.00,SW,225,12.0,16.0,37,0.00,,,-99.99,,2013-04-23 21:53:00,
2013-04-23 18:03:00,68.0,40.0,-100.00,SSW,205,14.0,18.0,35,0.00,,,-99.99,,2013-04-23 22:03:00,
2013-04-23 18:12:00,68.0,43.0,-100.00,SW,215,9.0,13.0,40,0.00,,,-99.99,,2013-04-23 22:12:00,
2013-04-23 18:22:00,67.0,44.0,-100.00,SW,215,6.0,12.0,42,0.00,,,-99.99,,2013-04-23 22:22:00,
2013-04-23 18:33:00,67.0,43.0,-100.00,SSW,200,9.0,12.0,40,0.00,,,-99.99,,2013-04-23 22:33:00,
2013-04-23 18:42:00,67.0,41.0,-100.00,SSW,200,11.0,17.0,38,0.00,,,-99.99,,2013-04-23 22:42:00,
2013-04-23 18:52:00,67.0,42.0,-100.00,SSW,195,9.0,14.0,40,0.00,,,-99.99,,2013-04-23 22:52:00,
2013-04-23 19:03:00,67.0,41.0,-100.00,SSW,205,10.0,17.0,38,0.00,,,-99.99,,2013-04-23 23:03:00,
2013-04-23 19:12:00,67.0,43.0,-100.00,SSW,200,6.0,12.0,42,0.00,,,-99.99,,2013-04-23 23:12:00,
2013-04-23 19:22:00,67.0,43.0,-100.00,South,190,11.0,14.0,41,0.00,,,-99.99,,2013-04-23 23:22:00,
2013-04-23 19:32:00,67.0,42.0,-100.00,South,190,9.0,16.0,40,0.00,,,-99.99,,2013-04-23 23:32:00,
2013-04-23 19:42:00,66.0,42.0,-100.00,SSW,195,9.0,15.0,41,0.00,,,-99.99,,2013-04-23 23:42:00,
2013-04-23 19:52:00,66.0,42.0,-100.00,SSW,195,9.0,15.0,41,0.00,,,-99.99,,2013-04-23 23:52:00,
2013-04-23 20:02:00,65.0,43.0,-100.00,South,190,7.0,9.0,44,0.00,,,-99.99,,2013-04-24 00:02:00,
2013-04-23 20:11:00,65.0,44.0,-100.00,South,180,7.0,10.0,45,0.00,,,-99.99,,2013-04-24 00:11:00,
2013-04-23 20:22:00,65.0,44.0,-100.00,South,190,6.0,10.0,46,0.00,,,-99.99,,2013-04-24 00:22:00,
2013-04-23 20:32:00,64.0,44.0,-100.00,South,190,5.0,7.0,47,0.00,,,-99.99,,2013-04-24 00:32:00,
2013-04-23 20:41:00,64.0,44.0,-100.00,SSW,200,6.0,9.0,47,0.00,,,-99.99,,2013-04-24 00:41:00,
2013-04-23 20:52:00,64.0,44.0,-100.00,South,190,6.0,8.0,47,0.00,,,-99.99,,2013-04-24 00:52:00,
2013-04-23 21:02:00,65.0,43.0,-100.00,SSW,200,7.0,9.0,45,0.00,,,-99.99,,2013-04-24 01:02:00,
2013-04-23 21:11:00,64.0,44.0,-100.00,SSW,195,6.0,9.0,48,0.00,,,-99.99,,2013-04-24 01:11:00,
2013-04-23 21:21:00,64.0,44.0,-100.00,South,190,5.0,7.0,49,0.00,,,-99.99,,2013-04-24 01:21:00,
2013-04-23 21:32:00,64.0,44.0,-100.00,South,185,4.0,8.0,49,0.00,,,-99.99,,2013-04-24 01:32:00,
2013-04-23 21:42:00,63.0,44.0,-100.00,South,180,4.0,6.0,51,0.00,,,-99.99,,2013-04-24 01:42:00,
2013-04-23 21:52:00,62.0,46.0,-100.00,South,185,4.0,6.0,54,0.00,,,-99.99,,2013-04-24 01:52:00,
2013-04-23 22:02:00,63.0,45.0,-100.00,South,180,4.0,6.0,51,0.00,,,-99.99,,2013-04-24 02:02:00,
2013-04-23 22:30:00,62.0,45.0,-100.00,SSE,160,4.0,6.0,54,0.00,,,-99.99,,2013-04-24 02:30:00,
2013-04-23 22:47:00,62.0,45.0,-100.00,South,170,4.0,6.0,54,0.00,,,-99.99,,2013-04-24 02:47:00,
2013-04-23 22:56:00,62.0,44.0,-100.00,SE,145,5.0,7.0,52,0.00,,,-99.99,,2013-04-24 02:56:00,
2013-04-23 23:29:00,62.0,44.0,-100.00,SE,145,7.0,9.0,50,0.00,,,-99.99,,2013-04-24 03:29:00,
2013-04-23 23:41:00,62.0,43.0,-100.00,SSE,150,5.0,9.0,49,0.00,,,-99.99,,2013-04-24 03:41:00,
2013-04-23 23:50:00,62.0,43.0,-100.00,SSE,165,6.0,8.0,49,0.00,,,-99.99,,2013-04-24 03:50:00,
2013-04-23 23:56:00,61.0,43.0,-100.00,South,170,7.0,9.0,51,0.00,,,-99.99,,2013-04-24 03:56:00,